Time;durP1;ratioP1;P1;durP2;ratioP2;P2;SDS_P1;SDS_P2;PMS_P1;PMS_P2;Temp;Humidity;BMP_temperature;BMP_pressure;BME280_temperature;BME280_humidity;BME280_pressure;Samples;Min_cycle;Max_cycle;Signal;HPM_P1;HPM_P2
2021/07/15 00:01:51;;;;;;;7.70;5.17;;;17.80;97.30;;;;;;5014907;28;20177;-79
2021/07/15 00:04:17;;;;;;;9.10;5.60;;;17.80;97.30;;;;;;4996452;28;20773;-77
2021/07/15 00:06:43;;;;;;;7.03;5.00;;;17.70;97.30;;;;;;4997109;28;20530;-78
2021/07/15 00:09:11;;;;;;;12.93;5.57;;;17.70;97.30;;;;;;5014373;28;20548;-78
2021/07/15 00:11:39;;;;;;;10.50;5.30;;;17.70;97.30;;;;;;5014984;28;20177;-78
2021/07/15 00:14:06;;;;;;;8.07;4.93;;;17.70;97.30;;;;;;4997210;28;20471;-77
2021/07/15 00:16:32;;;;;;;7.90;4.93;;;17.70;97.30;;;;;;5013812;28;20500;-77
2021/07/15 00:18:58;;;;;;;6.70;5.43;;;17.70;97.30;;;;;;5014663;28;20523;-77
2021/07/15 00:21:27;;;;;;;8.93;5.20;;;17.70;97.30;;;;;;4997073;28;20451;-77
2021/07/15 00:23:53;;;;;;;6.40;4.80;;;17.70;97.30;;;;;;5014522;28;20185;-77
2021/07/15 00:26:24;;;;;;;7.93;5.20;;;17.70;97.30;;;;;;5014349;28;20808;-77
2021/07/15 00:28:50;;;;;;;8.03;5.10;;;17.70;97.30;;;;;;4996688;28;20469;-77
2021/07/15 00:31:16;;;;;;;6.60;5.00;;;17.80;97.30;;;;;;4996708;28;20420;-78
2021/07/15 00:33:42;;;;;;;6.57;5.00;;;17.70;97.30;;;;;;5013475;28;20971;-78
2021/07/15 00:36:08;;;;;;;5.13;4.60;;;17.80;97.30;;;;;;4995970;28;20287;-78
2021/07/15 00:38:34;;;;;;;7.40;5.23;;;17.80;97.30;;;;;;4995490;28;20174;-78
2021/07/15 00:41:00;;;;;;;8.70;4.93;;;17.80;97.30;;;;;;4996442;28;20416;-78
2021/07/15 00:43:26;;;;;;;7.53;5.00;;;17.80;97.30;;;;;;4995798;28;20479;-78
2021/07/15 00:45:52;;;;;;;5.90;4.40;;;17.80;97.30;;;;;;4996321;28;20578;-78
2021/07/15 00:48:17;;;;;;;6.03;5.20;;;17.80;97.30;;;;;;5013580;28;20188;-78
2021/07/15 00:50:43;;;;;;;6.90;4.70;;;17.90;97.30;;;;;;4995891;28;20713;-77
2021/07/15 00:53:09;;;;;;;5.23;4.17;;;17.90;97.30;;;;;;4995963;28;20224;-77
2021/07/15 00:55:38;;;;;;;7.43;5.07;;;17.90;97.30;;;;;;4995970;28;20446;-78
2021/07/15 00:58:05;;;;;;;6.00;4.83;;;17.90;97.30;;;;;;5013809;28;20559;-77
2021/07/15 01:00:31;;;;;;;5.27;4.10;;;17.90;97.30;;;;;;4996131;28;20417;-78
2021/07/15 01:02:58;;;;;;;8.43;4.93;;;17.90;97.30;;;;;;4996298;28;20431;-77
2021/07/15 01:05:33;;;;;;;7.43;5.00;;;17.90;97.30;;;;;;4996287;28;20201;-79
2021/07/15 01:08:02;;;;;;;6.80;4.30;;;17.90;97.30;;;;;;5012433;28;20423;-76
2021/07/15 01:10:31;;;;;;;9.93;5.43;;;17.90;97.30;;;;;;4995827;28;20428;-77
2021/07/15 01:13:22;;;;;;;7.07;4.87;;;17.90;97.30;;;;;;4995491;28;20459;-76
2021/07/15 01:16:08;;;;;;;6.67;4.63;;;17.90;97.30;;;;;;4995742;28;20662;-77
2021/07/15 01:18:56;;;;;;;8.20;4.43;;;17.90;97.30;;;;;;5013531;28;20439;-77
2021/07/15 01:21:59;;;;;;;4.87;4.00;;;17.90;97.30;;;;;;5012738;28;20400;-78
2021/07/15 01:25:02;;;;;;;8.23;4.43;;;17.90;97.30;;;;;;5009420;28;20984;-77
2021/07/15 01:27:43;;;;;;;8.97;4.80;;;17.90;97.30;;;;;;5012689;28;20785;-77
2021/07/15 01:30:09;;;;;;;10.50;5.00;;;17.80;97.30;;;;;;5012387;28;20400;-76
2021/07/15 01:33:02;;;;;;;6.37;5.40;;;17.80;97.30;;;;;;4994986;28;20460;-77
2021/07/15 01:35:33;;;;;;;7.80;4.83;;;17.80;97.30;;;;;;5012080;28;20430;-77
2021/07/15 01:38:01;;;;;;;8.10;4.90;;;17.80;97.30;;;;;;5012394;28;20440;-77
2021/07/15 01:40:35;;;;;;;7.30;5.37;;;17.80;97.30;;;;;;4994680;28;20421;-77
2021/07/15 01:43:04;;;;;;;9.70;5.47;;;17.80;97.30;;;;;;4994933;28;20798;-77
2021/07/15 01:45:31;;;;;;;5.30;4.33;;;17.70;97.30;;;;;;4994703;28;20444;-79
2021/07/15 01:47:57;;;;;;;7.60;4.80;;;17.70;97.30;;;;;;4995109;28;20802;-77
2021/07/15 01:50:23;;;;;;;8.30;4.43;;;17.70;97.30;;;;;;5013080;28;20507;-76
2021/07/15 01:52:51;;;;;;;6.13;4.77;;;17.70;97.30;;;;;;5012290;28;20464;-77
2021/07/15 01:55:18;;;;;;;7.77;5.03;;;17.70;97.30;;;;;;4989908;28;20452;-77
2021/07/15 01:57:46;;;;;;;7.67;4.23;;;17.70;97.30;;;;;;4975287;28;20416;-76
2021/07/15 02:00:12;;;;;;;6.67;5.13;;;17.70;97.30;;;;;;4975213;28;20413;-77
2021/07/15 02:02:39;;;;;;;8.20;4.90;;;17.60;97.30;;;;;;4992702;28;20413;-77
2021/07/15 02:05:06;;;;;;;7.83;4.90;;;17.60;97.30;;;;;;4975097;28;20449;-77
2021/07/15 02:07:33;;;;;;;6.93;5.00;;;17.60;97.30;;;;;;4975371;28;20834;-77
2021/07/15 02:10:01;;;;;;;8.90;5.23;;;17.60;97.30;;;;;;4974959;28;20557;-77
2021/07/15 02:12:28;;;;;;;7.07;5.07;;;17.60;97.30;;;;;;4992685;28;20413;-77
2021/07/15 02:14:55;;;;;;;9.37;5.30;;;17.60;97.30;;;;;;4975283;28;20437;-79
2021/07/15 02:17:23;;;;;;;10.30;4.80;;;17.60;97.30;;;;;;4974999;28;20409;-77
2021/07/15 02:19:49;;;;;;;6.93;4.90;;;17.60;97.30;;;;;;4981381;28;20499;-77
2021/07/15 02:22:17;;;;;;;6.57;4.80;;;17.70;97.30;;;;;;4974820;28;20428;-77
2021/07/15 02:24:46;;;;;;;6.83;5.00;;;17.60;97.30;;;;;;4975131;28;20441;-77
2021/07/15 02:27:12;;;;;;;6.27;4.83;;;17.60;97.30;;;;;;4975042;28;20413;-77
2021/07/15 02:29:38;;;;;;;9.43;5.10;;;17.60;97.30;;;;;;4974860;28;20429;-77
2021/07/15 02:32:06;;;;;;;6.77;5.00;;;17.70;97.30;;;;;;4992800;28;20471;-79
2021/07/15 02:34:52;;;;;;;7.63;5.23;;;17.70;97.30;;;;;;4974831;28;20209;-78
2021/07/15 02:37:22;;;;;;;6.03;4.90;;;17.70;97.30;;;;;;4992366;28;20835;-77
2021/07/15 02:39:48;;;;;;;7.17;5.33;;;17.70;97.30;;;;;;4973738;28;20888;-77
2021/07/15 02:42:14;;;;;;;6.10;4.90;;;17.70;97.30;;;;;;4974749;28;20512;-78
2021/07/15 02:44:42;;;;;;;14.30;4.90;;;17.60;97.30;;;;;;4991953;28;20276;-77
2021/07/15 02:47:09;;;;;;;12.40;5.50;;;17.60;97.30;;;;;;4974608;28;20567;-77
2021/07/15 02:49:35;;;;;;;7.37;4.90;;;17.60;97.30;;;;;;4991946;28;20421;-78
2021/07/15 02:52:00;;;;;;;6.77;4.83;;;17.60;97.30;;;;;;4991985;28;21034;-78
2021/07/15 02:54:26;;;;;;;11.30;5.40;;;17.60;97.30;;;;;;4974454;28;20308;-77
2021/07/15 02:56:56;;;;;;;7.33;5.00;;;17.60;97.30;;;;;;4974542;28;20220;-76
2021/07/15 02:59:41;;;;;;;10.00;5.07;;;17.60;97.30;;;;;;4991965;28;20166;-77
2021/07/15 03:02:32;;;;;;;9.10;5.77;;;17.60;97.30;;;;;;4974506;28;20417;-77
2021/07/15 03:05:02;;;;;;;6.90;5.03;;;17.60;97.30;;;;;;4991497;28;20861;-77
2021/07/15 03:07:35;;;;;;;6.57;5.40;;;17.60;97.30;;;;;;4991907;28;20436;-78
2021/07/15 03:10:02;;;;;;;6.50;5.20;;;17.60;97.30;;;;;;4991185;28;20479;-77
2021/07/15 03:12:34;;;;;;;6.50;5.20;;;17.50;97.30;;;;;;4991573;28;20506;-77
2021/07/15 03:15:00;;;;;;;6.37;5.40;;;17.50;97.30;;;;;;4975020;28;20806;-77
2021/07/15 03:17:31;;;;;;;7.20;5.73;;;17.50;97.30;;;;;;4974989;28;20421;-76
2021/07/15 03:20:00;;;;;;;7.87;5.10;;;17.50;97.30;;;;;;4992499;28;20396;-77
2021/07/15 03:22:27;;;;;;;8.87;5.67;;;17.50;97.30;;;;;;4974919;28;20413;-77
2021/07/15 03:25:00;;;;;;;7.80;5.77;;;17.50;97.30;;;;;;4974950;28;20433;-76
2021/07/15 03:27:29;;;;;;;6.70;5.17;;;17.50;97.30;;;;;;4974821;28;20499;-77
2021/07/15 03:29:58;;;;;;;6.27;5.03;;;17.40;97.30;;;;;;4991891;28;20413;-77
2021/07/15 03:32:25;;;;;;;9.73;5.50;;;17.40;97.30;;;;;;4974109;28;20452;-78
2021/07/15 03:34:51;;;;;;;6.90;4.90;;;17.40;97.30;;;;;;4973710;28;20807;-78
2021/07/15 03:37:18;;;;;;;6.23;4.70;;;17.40;97.30;;;;;;4973737;28;20476;-77
2021/07/15 03:39:47;;;;;;;8.93;5.87;;;17.40;97.30;;;;;;4974067;28;20965;-77
2021/07/15 03:42:14;;;;;;;12.60;5.57;;;17.40;97.30;;;;;;4991748;28;20413;-78
2021/07/15 03:44:40;;;;;;;8.07;4.90;;;17.30;97.30;;;;;;4974212;28;20436;-77
2021/07/15 03:47:06;;;;;;;6.90;4.60;;;17.30;97.30;;;;;;4974523;28;20417;-76
2021/07/15 03:49:33;;;;;;;6.73;5.80;;;17.30;97.30;;;;;;4990258;28;20420;-76
2021/07/15 03:52:02;;;;;;;10.33;5.90;;;17.30;97.30;;;;;;4975801;28;20914;-77
2021/07/15 03:54:28;;;;;;;8.23;5.13;;;17.20;97.30;;;;;;5028454;23;20490;-81
2021/07/15 03:56:55;;;;;;;9.50;5.87;;;17.20;97.30;;;;;;5010394;28;20843;-80
2021/07/15 03:59:21;;;;;;;11.93;5.80;;;17.20;97.30;;;;;;4997217;28;20212;-80
2021/07/15 04:02:00;;;;;;;5.40;5.10;;;17.10;97.30;;;;;;4997016;28;20491;-81
2021/07/15 04:04:28;;;;;;;9.40;5.33;;;17.10;97.30;;;;;;5013893;28;20435;-80
2021/07/15 04:06:54;;;;;;;6.07;5.37;;;17.10;97.30;;;;;;4996682;28;20570;-81
2021/07/15 04:09:21;;;;;;;9.93;5.90;;;17.20;97.30;;;;;;4997155;28;20424;-83
2021/07/15 04:11:48;;;;;;;7.33;5.77;;;17.20;97.30;;;;;;4997786;28;20425;-81
2021/07/15 04:14:30;;;;;;;9.20;6.50;;;17.20;97.30;;;;;;4998017;28;20456;-82
2021/07/15 04:17:17;;;;;;;8.10;6.10;;;17.20;97.30;;;;;;5001267;28;20419;-82
2021/07/15 04:19:44;;;;;;;9.20;6.10;;;17.30;97.30;;;;;;5001768;28;20974;-82
2021/07/15 04:22:12;;;;;;;10.53;6.30;;;17.30;97.30;;;;;;5018461;28;20422;-83
2021/07/15 04:24:41;;;;;;;7.87;5.87;;;17.30;97.30;;;;;;5016403;28;20457;-82
2021/07/15 04:27:07;;;;;;;6.43;5.60;;;17.30;97.30;;;;;;5002684;28;20427;-82
2021/07/15 04:29:35;;;;;;;9.97;6.33;;;17.30;97.30;;;;;;5016151;28;20489;-82
2021/07/15 04:32:19;;;;;;;11.37;6.93;;;17.40;97.30;;;;;;5018773;28;20861;-81
2021/07/15 04:34:45;;;;;;;11.83;6.13;;;17.40;97.30;;;;;;5019073;28;20439;-81
2021/07/15 04:37:12;;;;;;;11.10;6.70;;;17.40;97.30;;;;;;5008896;28;20503;-82
2021/07/15 04:39:38;;;;;;;9.20;7.03;;;17.40;97.30;;;;;;4997874;28;20491;-82
2021/07/15 04:42:05;;;;;;;8.93;6.10;;;17.40;97.30;;;;;;4999591;28;20508;-81
2021/07/15 04:44:35;;;;;;;13.30;7.47;;;17.40;97.30;;;;;;5013352;28;20435;-81
2021/07/15 04:47:03;;;;;;;13.70;7.23;;;17.50;97.30;;;;;;5009159;28;20439;-81
2021/07/15 04:49:30;;;;;;;9.77;6.63;;;17.50;97.30;;;;;;5017568;28;20427;-81
2021/07/15 04:51:56;;;;;;;14.20;7.60;;;17.50;97.30;;;;;;5017367;28;20438;-82
2021/07/15 04:54:24;;;;;;;8.83;6.83;;;17.50;97.30;;;;;;5004571;28;20472;-82
2021/07/15 04:56:50;;;;;;;8.93;6.57;;;17.60;97.30;;;;;;5003522;28;20422;-82
2021/07/15 04:59:16;;;;;;;10.53;6.97;;;17.60;97.30;;;;;;5017654;28;20430;-82
2021/07/15 05:01:42;;;;;;;9.43;6.70;;;17.60;97.30;;;;;;5029975;28;20416;-82
2021/07/15 05:04:08;;;;;;;14.50;7.00;;;17.70;97.30;;;;;;4997699;28;20421;-82
2021/07/15 05:06:36;;;;;;;8.00;6.27;;;17.70;97.30;;;;;;5021747;28;20184;-83
2021/07/15 05:09:03;;;;;;;11.20;6.83;;;17.80;97.30;;;;;;5022864;28;20423;-82
2021/07/15 05:11:29;;;;;;;8.53;6.83;;;17.80;97.30;;;;;;5017818;28;20419;-82
2021/07/15 05:13:54;;;;;;;8.17;5.90;;;17.80;97.30;;;;;;5004639;28;20459;-83
2021/07/15 05:16:23;;;;;;;9.47;7.37;;;17.90;97.30;;;;;;4998318;28;20601;-82
2021/07/15 05:18:48;;;;;;;10.70;6.60;;;17.90;97.30;;;;;;5008836;28;20180;-82
2021/07/15 05:21:14;;;;;;;13.37;7.80;;;17.90;97.30;;;;;;5003066;28;20436;-82
2021/07/15 05:23:39;;;;;;;11.97;7.37;;;17.90;97.30;;;;;;4998808;28;20185;-82
2021/07/15 05:26:05;;;;;;;10.77;6.73;;;17.90;97.30;;;;;;4998202;28;20291;-82
2021/07/15 05:28:30;;;;;;;9.00;6.70;;;17.80;97.30;;;;;;4997468;28;20185;-82
2021/07/15 05:30:56;;;;;;;8.13;6.43;;;17.80;97.30;;;;;;4997762;28;20608;-82
2021/07/15 05:33:22;;;;;;;9.83;6.73;;;17.80;97.30;;;;;;5004811;28;20200;-82
2021/07/15 05:35:47;;;;;;;12.10;7.07;;;17.80;97.30;;;;;;5006912;28;20193;-83
2021/07/15 05:38:13;;;;;;;9.10;7.03;;;17.90;97.30;;;;;;5000391;28;20526;-82
2021/07/15 05:40:39;;;;;;;11.33;6.07;;;17.90;97.30;;;;;;4997767;28;20181;-82
2021/07/15 05:43:05;;;;;;;8.43;6.87;;;18.00;97.30;;;;;;4997229;28;20177;-82
2021/07/15 05:45:31;;;;;;;10.50;6.50;;;18.00;97.30;;;;;;4997532;28;20468;-82
2021/07/15 05:47:57;;;;;;;7.10;5.70;;;18.00;97.30;;;;;;4998554;28;20220;-82
2021/07/15 05:50:23;;;;;;;8.60;6.73;;;18.00;97.30;;;;;;4996544;28;20432;-82
2021/07/15 05:52:49;;;;;;;13.03;9.40;;;18.10;97.30;;;;;;4996397;28;20717;-82
2021/07/15 05:55:14;;;;;;;10.47;7.73;;;18.00;97.30;;;;;;4996077;28;20440;-82
2021/07/15 05:57:40;;;;;;;12.63;8.50;;;18.00;97.30;;;;;;5003001;28;20275;-82
2021/07/15 06:00:09;;;;;;;13.60;8.73;;;18.00;97.30;;;;;;4994723;28;20244;-82
2021/07/15 06:02:35;;;;;;;12.20;8.70;;;18.00;97.30;;;;;;4995954;28;20182;-82
2021/07/15 06:05:00;;;;;;;12.30;8.97;;;18.00;97.30;;;;;;5018096;28;20438;-83
2021/07/15 06:07:29;;;;;;;10.50;8.10;;;18.10;97.30;;;;;;5035110;28;20208;-83
2021/07/15 06:09:54;;;;;;;13.03;8.00;;;18.10;97.30;;;;;;5023908;28;20184;-86
2021/07/15 06:12:20;;;;;;;16.93;8.87;;;18.10;97.30;;;;;;5035919;28;20777;-86
2021/07/15 06:14:46;;;;;;;12.53;8.50;;;18.10;97.30;;;;;;5036084;28;20227;-86
2021/07/15 06:17:12;;;;;;;11.80;8.30;;;18.20;97.30;;;;;;5029588;28;20187;-86
2021/07/15 06:19:37;;;;;;;10.60;7.43;;;18.20;97.30;;;;;;5017305;28;20176;-83
2021/07/15 06:22:03;;;;;;;11.73;8.10;;;18.20;97.30;;;;;;5015999;28;20545;-85
2021/07/15 06:24:29;;;;;;;10.80;8.00;;;18.20;97.30;;;;;;5015688;28;20230;-84
2021/07/15 06:26:54;;;;;;;10.90;7.37;;;18.20;97.30;;;;;;5011906;28;20173;-85
2021/07/15 06:29:20;;;;;;;14.40;7.83;;;18.30;97.30;;;;;;4997469;28;20189;-84
2021/07/15 06:31:46;;;;;;;10.80;7.87;;;18.30;97.30;;;;;;4998723;28;20245;-85
2021/07/15 06:34:12;;;;;;;9.87;7.50;;;18.40;97.30;;;;;;4996924;28;20332;-85
2021/07/15 06:36:42;;;;;;;11.43;6.87;;;18.40;97.30;;;;;;5008743;28;20765;-85
2021/07/15 06:39:07;;;;;;;11.27;7.73;;;18.50;97.30;;;;;;5034756;28;20179;-85
2021/07/15 06:41:33;;;;;;;10.90;6.70;;;18.50;97.30;;;;;;5027045;28;20434;-85
2021/07/15 06:43:59;;;;;;;11.00;7.07;;;18.50;97.30;;;;;;5018289;28;20188;-85
2021/07/15 06:46:27;;;;;;;8.03;6.00;;;18.60;97.30;;;;;;5022240;28;20180;-84
2021/07/15 06:48:54;;;;;;;9.93;6.93;;;18.60;97.30;;;;;;5021954;28;20176;-85
2021/07/15 06:51:20;;;;;;;10.67;6.37;;;18.60;97.30;;;;;;5016595;28;20431;-87
2021/07/15 06:53:48;;;;;;;12.50;6.60;;;18.60;97.30;;;;;;5015782;28;20902;-87
2021/07/15 06:56:13;;;;;;;10.33;6.20;;;18.60;97.30;;;;;;5016224;28;20538;-86
2021/07/15 06:58:39;;;;;;;8.40;6.20;;;18.70;97.30;;;;;;5015745;28;20462;-85
2021/07/15 07:01:07;;;;;;;12.43;6.17;;;18.70;97.30;;;;;;5014624;28;20173;-86
2021/07/15 07:03:32;;;;;;;6.10;5.23;;;18.80;97.30;;;;;;5015325;28;20210;-86
2021/07/15 07:05:58;;;;;;;10.27;5.37;;;18.90;97.30;;;;;;5013874;28;20510;-86
2021/07/15 07:08:23;;;;;;;24.33;5.20;;;18.90;97.30;;;;;;5012480;28;20773;-86
2021/07/15 07:10:49;;;;;;;5.30;4.33;;;19.00;97.30;;;;;;5013284;28;20184;-86
2021/07/15 07:13:14;;;;;;;10.77;5.40;;;19.10;97.30;;;;;;5013642;28;20339;-86
2021/07/15 07:15:40;;;;;;;6.60;4.40;;;19.20;97.30;;;;;;5014136;28;20216;-86
2021/07/15 07:18:06;;;;;;;6.80;4.50;;;19.30;97.30;;;;;;5014489;28;20183;-84
2021/07/15 07:20:31;;;;;;;5.97;4.93;;;19.40;97.30;;;;;;5005484;28;20181;-86
2021/07/15 07:22:57;;;;;;;6.50;4.57;;;19.40;97.30;;;;;;5018862;28;20176;-85
2021/07/15 07:25:22;;;;;;;6.60;4.20;;;19.50;97.30;;;;;;5013920;28;20298;-85
2021/07/15 07:27:48;;;;;;;8.50;4.80;;;19.60;97.30;;;;;;5034944;28;20173;-86
2021/07/15 07:30:16;;;;;;;4.30;4.03;;;19.70;97.30;;;;;;5029221;28;20187;-85
2021/07/15 07:32:43;;;;;;;13.07;4.40;;;19.80;97.30;;;;;;5036689;28;20244;-85
2021/07/15 07:35:10;;;;;;;5.40;3.37;;;19.80;97.30;;;;;;5026659;28;20439;-85
2021/07/15 07:37:35;;;;;;;4.63;3.77;;;19.90;97.30;;;;;;5018260;28;20415;-85
2021/07/15 07:40:03;;;;;;;4.17;3.83;;;20.00;97.30;;;;;;5018601;28;20421;-85
2021/07/15 07:42:29;;;;;;;5.20;4.30;;;20.10;97.30;;;;;;5018580;28;20199;-84
2021/07/15 07:44:55;;;;;;;5.37;3.73;;;20.20;97.30;;;;;;5018530;28;20943;-85
2021/07/15 07:47:20;;;;;;;4.60;4.17;;;20.20;97.30;;;;;;5018379;28;20180;-84
2021/07/15 07:49:46;;;;;;;6.07;3.90;;;20.30;97.30;;;;;;5036262;28;20179;-84
2021/07/15 07:52:11;;;;;;;6.37;4.10;;;20.40;97.30;;;;;;5018797;28;20184;-84
2021/07/15 07:54:37;;;;;;;3.80;3.30;;;20.50;97.30;;;;;;5017949;28;20232;-83
2021/07/15 07:57:03;;;;;;;5.10;3.90;;;20.50;97.30;;;;;;5018215;28;20259;-85
2021/07/15 07:59:28;;;;;;;4.87;4.03;;;20.60;97.30;;;;;;5018122;28;20172;-85
2021/07/15 08:01:54;;;;;;;4.07;3.70;;;20.70;97.30;;;;;;5035688;28;20228;-85
2021/07/15 08:04:19;;;;;;;3.27;3.10;;;20.80;97.30;;;;;;5018055;28;20239;-84
2021/07/15 08:06:47;;;;;;;5.03;3.73;;;20.90;97.30;;;;;;5019636;28;20637;-84
2021/07/15 08:09:15;;;;;;;3.77;3.50;;;21.00;97.30;;;;;;5037514;28;20176;-84
2021/07/15 08:11:44;;;;;;;3.20;2.90;;;20.90;97.30;;;;;;5037819;28;20979;-84
2021/07/15 08:14:10;;;;;;;4.70;3.53;;;21.00;97.30;;;;;;5037248;28;20519;-84
2021/07/15 08:16:35;;;;;;;3.30;3.10;;;21.00;97.30;;;;;;5037620;28;20410;-84
2021/07/15 08:19:01;;;;;;;4.60;3.10;;;21.00;97.30;;;;;;5037720;28;20625;-85
2021/07/15 08:21:27;;;;;;;9.63;3.63;;;21.10;97.30;;;;;;5037447;28;20212;-84
2021/07/15 08:23:53;;;;;;;4.60;3.47;;;21.20;97.30;;;;;;5038468;28;20247;-84
2021/07/15 08:26:18;;;;;;;7.70;3.37;;;21.20;97.30;;;;;;5034075;28;20672;-85
2021/07/15 08:28:44;;;;;;;4.60;3.10;;;21.30;97.30;;;;;;5021932;28;20429;-84
2021/07/15 08:31:10;;;;;;;4.50;3.33;;;21.30;97.30;;;;;;5007368;28;20185;-85
2021/07/15 08:33:36;;;;;;;3.67;3.23;;;21.40;97.30;;;;;;5016304;28;20469;-85
2021/07/15 08:36:02;;;;;;;5.80;3.37;;;21.50;97.30;;;;;;5013510;28;20436;-85
2021/07/15 08:38:28;;;;;;;7.53;4.03;;;21.50;97.30;;;;;;4995920;28;20208;-84
2021/07/15 08:40:53;;;;;;;3.70;2.90;;;21.60;97.30;;;;;;4997374;28;20778;-84
2021/07/15 08:43:19;;;;;;;3.47;3.13;;;21.70;97.30;;;;;;5007726;28;20212;-84
2021/07/15 08:45:46;;;;;;;3.40;3.20;;;21.80;97.30;;;;;;4997094;28;20205;-84
2021/07/15 08:48:12;;;;;;;4.00;3.50;;;21.90;97.30;;;;;;4996556;28;20412;-84
2021/07/15 08:50:39;;;;;;;3.80;3.30;;;22.00;97.30;;;;;;5002587;28;20432;-84
2021/07/15 08:53:05;;;;;;;3.83;2.97;;;22.20;97.30;;;;;;5032966;28;20475;-84
2021/07/15 08:58:16;;;;;;;4.00;3.20;;;22.50;97.30;;;;;;5020022;28;20595;-86
2021/07/15 09:00:43;;;;;;;5.03;3.80;;;22.60;97.30;;;;;;5004008;28;20573;-84
2021/07/15 09:03:10;;;;;;;2.90;2.70;;;22.70;97.30;;;;;;5009698;28;20443;-85
2021/07/15 09:05:36;;;;;;;3.27;3.10;;;22.70;96.80;;;;;;5002879;28;20857;-85
2021/07/15 09:08:02;;;;;;;3.40;3.20;;;22.80;97.30;;;;;;5006344;28;20423;-85
2021/07/15 09:10:29;;;;;;;4.33;3.50;;;22.90;97.30;;;;;;5015128;28;21044;-85
2021/07/15 09:13:03;;;;;;;3.53;3.40;;;23.00;97.30;;;;;;5015123;28;20454;-85
2021/07/15 09:15:29;;;;;;;7.67;3.57;;;23.00;96.80;;;;;;5017842;28;20540;-85
2021/07/15 09:17:54;;;;;;;3.33;3.10;;;23.20;97.30;;;;;;5016857;28;20435;-85
2021/07/15 09:20:23;;;;;;;5.30;3.10;;;23.20;97.00;;;;;;5015268;28;20415;-86
2021/07/15 09:23:11;;;;;;;4.57;3.40;;;23.30;96.20;;;;;;5004081;28;20562;-86
2021/07/15 09:25:39;;;;;;;3.77;3.10;;;23.40;95.40;;;;;;5011251;28;20447;-86
2021/07/15 09:28:13;;;;;;;6.03;4.20;;;23.40;94.40;;;;;;5014642;28;20426;-87
2021/07/15 09:30:40;;;;;;;5.30;3.57;;;23.40;93.80;;;;;;5006344;28;20765;-86
2021/07/15 09:33:15;;;;;;;4.47;3.73;;;23.50;95.30;;;;;;5013268;28;20487;-86
2021/07/15 09:35:42;;;;;;;5.30;3.50;;;23.50;95.00;;;;;;4995312;28;20463;-86
2021/07/15 09:38:08;;;;;;;6.43;3.20;;;23.50;95.10;;;;;;4995635;28;20424;-86
2021/07/15 09:40:39;;;;;;;4.77;3.43;;;23.50;96.80;;;;;;4997579;28;20443;-86
2021/07/15 09:43:15;;;;;;;4.30;3.33;;;23.60;96.40;;;;;;5009519;28;20185;-85
2021/07/15 09:45:42;;;;;;;5.10;3.67;;;23.80;97.30;;;;;;5012435;28;20962;-86
2021/07/15 09:48:19;;;;;;;4.60;3.50;;;23.90;94.10;;;;;;5012577;28;20802;-86
2021/07/15 09:50:45;;;;;;;3.67;3.23;;;24.10;93.30;;;;;;5012859;28;20473;-86
2021/07/15 09:53:33;;;;;;;7.20;3.77;;;24.10;92.80;;;;;;5011659;28;20996;-86
2021/07/15 09:56:04;;;;;;;8.93;3.30;;;24.20;92.90;;;;;;5006728;28;20435;-86
2021/07/15 09:58:35;;;;;;;8.37;3.37;;;24.30;92.90;;;;;;4994451;28;20502;-86
2021/07/15 10:01:04;;;;;;;4.87;3.43;;;24.40;92.90;;;;;;4994781;28;20499;-86
2021/07/15 10:03:52;;;;;;;5.97;4.10;;;24.50;91.40;;;;;;5010501;28;20432;-86
2021/07/15 10:06:22;;;;;;;3.27;3.10;;;24.40;91.50;;;;;;4995096;28;20456;-86
2021/07/15 10:08:54;;;;;;;5.90;3.03;;;24.50;92.70;;;;;;5013012;28;20428;-86
2021/07/15 10:11:30;;;;;;;3.77;3.20;;;24.50;92.50;;;;;;4996452;28;20929;-86
2021/07/15 10:14:00;;;;;;;4.67;3.07;;;24.50;93.80;;;;;;4999995;28;20470;-86
2021/07/15 10:16:31;;;;;;;6.70;3.20;;;24.60;95.10;;;;;;4993326;28;21014;-86
2021/07/15 10:19:02;;;;;;;3.43;3.07;;;24.60;92.10;;;;;;5002001;28;20408;-86
2021/07/15 10:21:31;;;;;;;2.97;2.87;;;24.60;91.60;;;;;;5001050;28;20432;-86
2021/07/15 10:23:58;;;;;;;3.97;2.87;;;24.70;90.40;;;;;;5003982;28;20419;-86
2021/07/15 10:26:25;;;;;;;6.30;3.43;;;24.80;90.40;;;;;;5005115;28;20451;-86
2021/07/15 10:28:51;;;;;;;3.40;3.20;;;24.90;91.40;;;;;;4994023;28;20921;-86
2021/07/15 10:31:19;;;;;;;3.87;3.10;;;24.90;91.90;;;;;;4993421;28;20474;-86
2021/07/15 10:33:47;;;;;;;3.30;3.10;;;24.90;90.40;;;;;;4997263;28;20443;-86
2021/07/15 10:36:13;;;;;;;3.17;3.00;;;24.90;91.60;;;;;;4999506;28;20482;-86
2021/07/15 10:38:48;;;;;;;6.70;3.50;;;24.90;92.10;;;;;;5000899;28;20428;-86
2021/07/15 10:41:14;;;;;;;3.17;3.00;;;25.00;93.40;;;;;;5028120;28;20425;-87
2021/07/15 10:43:40;;;;;;;4.40;3.30;;;25.00;93.00;;;;;;4999027;28;20419;-87
2021/07/15 10:46:07;;;;;;;6.73;3.80;;;25.00;94.60;;;;;;5010726;28;20464;-87
2021/07/15 10:48:35;;;;;;;3.50;3.10;;;25.10;94.30;;;;;;5005352;28;20435;-87
2021/07/15 10:51:01;;;;;;;4.20;3.63;;;25.20;94.60;;;;;;5014377;28;20423;-86
2021/07/15 10:53:29;;;;;;;3.73;3.23;;;25.20;92.30;;;;;;5014216;28;20529;-87
2021/07/15 10:55:55;;;;;;;2.97;2.80;;;25.20;93.20;;;;;;5014328;28;20446;-86
2021/07/15 11:00:50;;;;;;;3.60;2.70;;;25.20;91.00;;;;;;5010302;28;20495;-77
2021/07/15 11:03:24;;;;;;;5.63;3.07;;;25.10;90.50;;;;;;4998373;28;20417;-77
2021/07/15 11:05:56;;;;;;;2.70;2.60;;;25.00;91.50;;;;;;4998350;28;20469;-79
2021/07/15 11:08:48;;;;;;;4.63;3.23;;;24.90;89.90;;;;;;5016029;28;20392;-76
2021/07/15 11:11:14;;;;;;;8.00;3.20;;;24.90;92.80;;;;;;4997833;28;20414;-77
2021/07/15 11:13:42;;;;;;;6.00;3.20;;;24.90;92.50;;;;;;4998171;28;20464;-78
2021/07/15 11:16:08;;;;;;;3.90;2.90;;;24.90;93.90;;;;;;4998626;28;20432;-78
2021/07/15 11:18:48;;;;;;;3.50;3.30;;;25.00;94.00;;;;;;5016489;28;20417;-77
2021/07/15 11:21:30;;;;;;;3.40;3.20;;;24.90;92.10;;;;;;4998626;28;20169;-76
2021/07/15 11:24:05;;;;;;;3.43;3.23;;;24.80;90.80;;;;;;4998010;28;20861;-78
2021/07/15 11:26:37;;;;;;;3.33;3.13;;;24.80;91.00;;;;;;4997384;28;20423;-77
2021/07/15 11:29:03;;;;;;;6.83;3.90;;;24.80;92.80;;;;;;5014564;28;20785;-77
2021/07/15 11:31:46;;;;;;;4.00;3.07;;;24.80;93.40;;;;;;4997293;28;20523;-77
2021/07/15 11:34:38;;;;;;;5.67;3.20;;;24.80;94.50;;;;;;5014000;28;20279;-78
2021/07/15 11:37:25;;;;;;;4.57;3.80;;;24.80;94.70;;;;;;4998014;28;20454;-78
2021/07/15 11:39:55;;;;;;;3.67;3.47;;;24.70;93.90;;;;;;4997733;28;20428;-76
2021/07/15 11:42:22;;;;;;;6.10;4.13;;;24.70;93.30;;;;;;4997763;28;20400;-77
2021/07/15 11:44:58;;;;;;;5.53;3.50;;;24.60;94.00;;;;;;5013651;28;20443;-77
2021/07/15 11:47:42;;;;;;;4.23;3.53;;;24.60;93.20;;;;;;4997499;28;20407;-76
2021/07/15 11:50:33;;;;;;;4.23;3.97;;;24.50;91.80;;;;;;4997175;28;20423;-77
2021/07/15 11:53:16;;;;;;;3.77;3.53;;;24.50;93.30;;;;;;4995359;28;20448;-77
2021/07/15 11:55:43;;;;;;;4.30;3.80;;;24.50;94.40;;;;;;4996139;28;20473;-78
2021/07/15 11:58:47;;;;;;;3.97;3.80;;;24.50;94.40;;;;;;4997026;28;20419;-77
2021/07/15 12:01:12;;;;;;;4.57;3.73;;;24.60;96.00;;;;;;4997255;28;20412;-77
2021/07/15 12:04:15;;;;;;;4.23;3.63;;;24.60;95.10;;;;;;4997160;28;20416;-77
2021/07/15 12:06:44;;;;;;;4.83;3.40;;;24.80;94.10;;;;;;5014454;28;20185;-78
2021/07/15 12:09:13;;;;;;;4.50;3.93;;;25.10;91.90;;;;;;4997623;28;20948;-78
2021/07/15 12:11:42;;;;;;;4.00;3.53;;;25.30;91.60;;;;;;4996219;28;20412;-78
2021/07/15 12:14:09;;;;;;;3.90;3.80;;;25.50;91.10;;;;;;4996539;28;20498;-77
2021/07/15 12:16:37;;;;;;;7.87;4.00;;;25.50;91.70;;;;;;4996882;28;20427;-77
2021/07/15 12:19:10;;;;;;;4.00;3.80;;;25.50;92.40;;;;;;4996590;28;20419;-77
2021/07/15 12:21:38;;;;;;;9.97;4.30;;;25.50;93.70;;;;;;4996625;28;20801;-77
2021/07/15 12:24:14;;;;;;;5.30;3.77;;;25.40;92.00;;;;;;4996491;28;20423;-76
2021/07/15 12:26:40;;;;;;;5.10;3.30;;;25.50;91.30;;;;;;4996488;28;20416;-78
2021/07/15 12:29:11;;;;;;;5.90;4.00;;;25.70;92.00;;;;;;4996532;28;20423;-77
2021/07/15 12:31:37;;;;;;;4.13;3.70;;;25.80;94.00;;;;;;4996574;28;20187;-77
2021/07/15 12:34:07;;;;;;;4.37;3.53;;;25.90;91.80;;;;;;4996189;28;20896;-77
2021/07/15 12:36:36;;;;;;;5.40;3.27;;;26.00;95.00;;;;;;4997295;28;20417;-78
2021/07/15 12:39:10;;;;;;;3.63;3.30;;;26.20;92.10;;;;;;4997475;28;20443;-78
2021/07/15 12:41:46;;;;;;;5.97;3.83;;;26.10;89.80;;;;;;4997115;28;20483;-77
2021/07/15 12:44:14;;;;;;;19.23;3.63;;;25.90;89.40;;;;;;5014456;28;20854;-78
2021/07/15 12:46:45;;;;;;;7.77;4.00;;;25.80;89.50;;;;;;4996805;28;20428;-78
2021/07/15 12:49:17;;;;;;;5.33;4.23;;;25.80;92.00;;;;;;5013506;28;20416;-77
2021/07/15 12:51:43;;;;;;;4.30;4.00;;;25.80;89.40;;;;;;4996757;28;20427;-78
2021/07/15 12:54:17;;;;;;;3.73;3.57;;;25.80;90.70;;;;;;4996276;28;20996;-78
2021/07/15 12:56:43;;;;;;;4.17;3.00;;;25.90;91.80;;;;;;5014385;28;20349;-78
2021/07/15 12:59:10;;;;;;;4.67;4.20;;;26.10;92.70;;;;;;5012934;28;20467;-78
2021/07/15 13:01:39;;;;;;;4.83;3.83;;;26.40;88.70;;;;;;5014488;28;20414;-77